Aviation Digital Data Service (ADDS)

Output produced by TAFs form (0648 UTC 24 September 2017)
found at http://aviationweather.gov/adds/tafs/
 
Forecast for: KMHR (MATHER FIELD , CA, US)
Text: KMHR 240535Z 2406/2506 VRB05KT P6SM SKC
Forecast period: 0600 to 1800 UTC 24 September 2017
Forecast type: FROM: standard forecast or significant change
Winds: variable direction winds at 6 MPH (5 knots; 2.6 m/s)
Visibility: 6 or more miles (10+ km)
Clouds: clear skies
Weather: no significant weather forecast for this period
Text: FM241800 34008KT P6SM SKC AMD NOT SKED
Forecast period: 1800 UTC 24 September 2017 to 0600 UTC 25 September 2017
Forecast type: FROM: standard forecast or significant change
Winds: from the NNW (340 degrees) at 9 MPH (8 knots; 4.2 m/s)
Visibility: 6 or more miles (10+ km)
Clouds: clear skies
Weather: no significant weather forecast for this period